createdAt,value
2018-09-20T00:00:23.699Z,17.20
2018-09-20T00:02:53.827Z,17.20
2018-09-20T00:05:24.612Z,17.20
2018-09-20T00:07:54.700Z,17.20
2018-09-20T00:10:24.844Z,17.20
2018-09-20T00:12:54.932Z,17.20
2018-09-20T00:15:24.981Z,17.20
2018-09-20T00:17:55.057Z,17.20
2018-09-20T00:20:25.149Z,17.20
2018-09-20T00:22:55.233Z,17.20
2018-09-20T00:25:25.983Z,17.20
2018-09-20T00:27:56.064Z,17.20
2018-09-20T00:30:26.152Z,17.20
2018-09-20T00:32:56.248Z,17.20
2018-09-20T00:35:26.377Z,17.10
2018-09-20T00:37:56.481Z,17.10
2018-09-20T00:40:26.637Z,17.10
2018-09-20T00:42:56.724Z,17.10
2018-09-20T00:45:26.860Z,17.00
2018-09-20T00:47:56.948Z,17.00
2018-09-20T00:50:27.064Z,17.00
2018-09-20T00:52:57.101Z,17.00
2018-09-20T00:55:27.200Z,17.00
2018-09-20T00:57:57.308Z,17.00
2018-09-20T01:00:27.465Z,17.00
2018-09-20T01:02:57.895Z,17.00
2018-09-20T01:05:27.988Z,17.00
2018-09-20T01:07:58.052Z,17.00
2018-09-20T01:10:28.136Z,17.00
2018-09-20T01:12:58.276Z,17.00
2018-09-20T01:15:28.393Z,17.00
2018-09-20T01:17:58.441Z,17.00
2018-09-20T01:20:28.765Z,17.10
2018-09-20T01:22:58.844Z,17.10
2018-09-20T01:25:28.988Z,17.10
2018-09-20T01:27:59.084Z,17.10
2018-09-20T01:30:29.159Z,17.10
2018-09-20T01:32:59.221Z,17.10
2018-09-20T01:35:29.434Z,17.00
2018-09-20T01:37:59.485Z,17.00
2018-09-20T01:40:29.603Z,17.00
2018-09-20T01:42:59.680Z,17.00
2018-09-20T01:45:29.808Z,16.90
2018-09-20T01:48:00.612Z,16.90
2018-09-20T01:50:30.707Z,16.80
2018-09-20T01:53:00.854Z,16.80
2018-09-20T01:55:31.592Z,16.80
2018-09-20T01:58:01.660Z,16.80
2018-09-20T02:00:31.945Z,16.70
2018-09-20T02:03:02.018Z,16.70
2018-09-20T02:05:32.104Z,16.70
2018-09-20T02:08:02.308Z,16.70
2018-09-20T02:10:32.461Z,16.60
2018-09-20T02:13:02.669Z,16.60
2018-09-20T02:15:32.973Z,16.60
2018-09-20T02:18:03.284Z,16.60
2018-09-20T02:20:33.413Z,16.60
2018-09-20T02:23:03.528Z,16.60
2018-09-20T02:25:33.629Z,16.60
2018-09-20T02:28:03.770Z,16.60
2018-09-20T02:30:33.821Z,16.60
2018-09-20T02:33:03.929Z,16.60
2018-09-20T02:35:34.004Z,16.60
2018-09-20T02:38:04.105Z,16.60
2018-09-20T02:40:34.174Z,16.50
2018-09-20T02:43:04.282Z,16.60
2018-09-20T02:45:34.385Z,16.60
2018-09-20T02:48:04.409Z,16.60
2018-09-20T02:50:34.505Z,16.60
2018-09-20T02:53:04.704Z,16.50
2018-09-20T02:55:34.833Z,16.60
2018-09-20T02:58:04.952Z,16.60
2018-09-20T03:00:35.021Z,16.60
2018-09-20T03:03:05.121Z,16.50
2018-09-20T03:05:35.196Z,16.60
2018-09-20T03:08:06.300Z,16.60
2018-09-20T03:10:36.387Z,16.50
2018-09-20T03:13:07.089Z,16.60
2018-09-20T03:15:37.225Z,16.60
2018-09-20T03:18:07.307Z,16.60
2018-09-20T03:20:37.400Z,16.60
2018-09-20T03:23:07.468Z,16.60
2018-09-20T03:25:37.477Z,16.60
2018-09-20T03:28:07.626Z,16.60
2018-09-20T03:30:37.913Z,16.60
2018-09-20T03:33:07.941Z,16.50
2018-09-20T03:35:38.172Z,16.50
2018-09-20T03:38:08.249Z,16.50
2018-09-20T03:40:38.377Z,16.40
2018-09-20T03:43:08.469Z,16.40
2018-09-20T03:45:38.597Z,16.40
2018-09-20T03:48:08.624Z,16.40
2018-09-20T03:50:38.729Z,16.40
2018-09-20T03:53:08.823Z,16.40
2018-09-20T03:55:39.406Z,16.40
2018-09-20T03:58:09.431Z,16.40
2018-09-20T04:00:39.996Z,16.40
2018-09-20T04:03:10.104Z,16.40
2018-09-20T04:05:40.212Z,16.40
2018-09-20T04:08:10.551Z,16.40
2018-09-20T04:10:40.796Z,16.40
2018-09-20T04:13:10.921Z,16.40
2018-09-20T04:15:41.041Z,16.40
2018-09-20T04:18:11.516Z,16.40
2018-09-20T04:20:41.731Z,16.40
2018-09-20T04:23:11.813Z,16.40
2018-09-20T04:25:42.589Z,16.40
2018-09-20T04:28:12.702Z,16.40
2018-09-20T04:30:43.559Z,16.40
2018-09-20T04:33:14.448Z,16.40
2018-09-20T04:35:44.525Z,16.50
2018-09-20T04:38:14.681Z,16.50
2018-09-20T04:40:45.518Z,16.50
2018-09-20T04:43:15.678Z,16.50
2018-09-20T04:45:45.800Z,16.50
2018-09-20T04:48:16.029Z,16.50
2018-09-20T04:50:46.272Z,16.50
2018-09-20T04:53:17.713Z,16.50
2018-09-20T04:55:47.820Z,16.40
2018-09-20T04:58:18.268Z,16.40
2018-09-20T05:00:48.384Z,16.50
2018-09-20T05:03:18.896Z,16.40
2018-09-20T05:05:50.367Z,16.50
2018-09-20T05:08:20.478Z,16.50
2018-09-20T05:10:51.305Z,16.50
2018-09-20T05:13:22.603Z,16.50
2018-09-20T05:15:54.578Z,16.50
2018-09-20T05:18:24.708Z,16.50
2018-09-20T05:20:54.822Z,16.50
2018-09-20T05:23:24.989Z,16.50
2018-09-20T05:25:55.304Z,16.50
2018-09-20T05:28:26.108Z,16.60
2018-09-20T05:30:56.272Z,16.70
2018-09-20T05:33:26.480Z,16.70
2018-09-20T05:35:57.244Z,16.80
2018-09-20T05:38:27.587Z,16.90
2018-09-20T05:40:57.716Z,17.00
2018-09-20T05:43:27.870Z,17.00
2018-09-20T05:45:58.088Z,17.10
2018-09-20T05:48:28.814Z,17.10
2018-09-20T05:50:58.977Z,17.10
2018-09-20T05:53:29.071Z,17.20
2018-09-20T05:56:00.595Z,17.30
2018-09-20T05:58:31.335Z,17.30
2018-09-20T06:01:01.847Z,17.30
2018-09-20T06:03:31.944Z,17.40
2018-09-20T06:06:02.261Z,17.40
2018-09-20T06:08:32.364Z,17.40
2018-09-20T06:11:03.449Z,17.40
2018-09-20T06:13:34.023Z,17.40
2018-09-20T06:16:05.028Z,17.40
2018-09-20T06:18:35.952Z,17.40
2018-09-20T06:21:06.241Z,17.40
2018-09-20T06:23:36.385Z,17.40
2018-09-20T06:26:06.560Z,17.40
2018-09-20T06:28:37.191Z,17.40
2018-09-20T06:31:07.639Z,17.40
2018-09-20T06:33:37.757Z,17.40
2018-09-20T06:36:07.973Z,17.40
2018-09-20T06:38:38.094Z,17.40
2018-09-20T06:41:08.912Z,17.50
2018-09-20T06:43:40.442Z,17.50
2018-09-20T06:46:10.523Z,17.50
2018-09-20T06:48:41.499Z,17.60
2018-09-20T06:51:11.672Z,17.60
2018-09-20T06:53:41.822Z,17.60
2018-09-20T06:56:12.692Z,17.60
2018-09-20T06:58:42.901Z,17.60
2018-09-20T07:01:13.309Z,17.50
2018-09-20T07:03:43.467Z,17.40
2018-09-20T07:06:13.643Z,17.40
2018-09-20T07:08:44.372Z,17.40
2018-09-20T07:11:14.541Z,17.40
2018-09-20T07:13:45.811Z,17.40
2018-09-20T07:16:16.732Z,17.40
2018-09-20T07:18:47.674Z,17.40
2018-09-20T07:21:17.853Z,17.50
2018-09-20T07:23:48.312Z,17.50
2018-09-20T07:26:19.268Z,17.50
2018-09-20T07:28:49.884Z,17.50
2018-09-20T07:31:19.960Z,17.50
2018-09-20T07:33:50.081Z,17.60
2018-09-20T07:36:20.237Z,17.60
2018-09-20T07:38:50.422Z,17.60
2018-09-20T07:41:20.565Z,17.70
2018-09-20T07:43:50.853Z,17.70
2018-09-20T07:46:20.960Z,17.70
2018-09-20T07:48:51.119Z,17.70
2018-09-20T07:51:21.228Z,17.80
2018-09-20T07:53:51.425Z,17.80
2018-09-20T07:56:21.598Z,17.90
2018-09-20T07:58:53.207Z,17.90
2018-09-20T08:01:23.371Z,17.90
2018-09-20T08:03:54.068Z,18.00
2018-09-20T08:06:25.379Z,18.00
2018-09-20T08:08:55.528Z,18.00
2018-09-20T08:11:25.584Z,18.00
2018-09-20T08:13:55.727Z,18.00
2018-09-20T08:16:26.581Z,18.00
2018-09-20T08:18:57.492Z,18.00
2018-09-20T08:21:27.944Z,18.00
2018-09-20T08:23:58.748Z,18.00
2018-09-20T08:26:28.872Z,18.00
2018-09-20T08:28:58.972Z,18.00
2018-09-20T08:31:29.120Z,18.00
2018-09-20T08:33:59.240Z,18.00
2018-09-20T08:36:29.355Z,18.00
2018-09-20T08:38:59.544Z,18.00
2018-09-20T08:41:29.662Z,18.00
2018-09-20T08:43:59.824Z,18.00
2018-09-20T08:46:29.945Z,17.90
2018-09-20T08:49:01.073Z,17.90
2018-09-20T08:51:31.221Z,18.00
2018-09-20T08:54:01.361Z,18.00
2018-09-20T08:56:32.321Z,18.00
2018-09-20T08:59:02.848Z,18.10
2018-09-20T09:01:33.736Z,18.10
2018-09-20T09:04:03.868Z,18.20
2018-09-20T09:06:34.789Z,18.20
2018-09-20T09:09:07.984Z,18.30
2018-09-20T09:11:40.029Z,18.30
2018-09-20T09:14:10.488Z,18.30
2018-09-20T09:16:41.360Z,18.40
2018-09-20T09:19:12.007Z,18.50
2018-09-20T09:21:42.194Z,18.50
2018-09-20T09:24:12.425Z,18.40
2018-09-20T09:26:42.640Z,18.40
2018-09-20T09:29:12.865Z,18.40
2018-09-20T09:31:43.037Z,18.50
2018-09-20T09:34:13.450Z,18.50
2018-09-20T09:36:44.264Z,18.50
2018-09-20T09:39:14.857Z,18.60
2018-09-20T09:41:45.608Z,18.60
2018-09-20T09:44:16.003Z,18.70
2018-09-20T09:46:46.164Z,18.70
2018-09-20T09:49:16.311Z,18.70
2018-09-20T09:51:47.002Z,18.80
2018-09-20T09:54:17.231Z,18.90
2018-09-20T09:56:47.345Z,19.00
2018-09-20T09:59:18.336Z,18.90
2018-09-20T10:01:49.259Z,19.00
2018-09-20T10:04:19.424Z,19.00
2018-09-20T10:06:49.665Z,18.90
2018-09-20T10:09:19.853Z,18.90
2018-09-20T10:11:49.984Z,19.00
2018-09-20T10:14:20.109Z,19.20
2018-09-20T10:16:50.901Z,19.20
2018-09-20T10:19:21.240Z,19.20
2018-09-20T10:21:51.391Z,19.20
2018-09-20T10:24:21.500Z,19.30
2018-09-20T10:26:52.215Z,19.20
2018-09-20T10:29:22.404Z,19.40
2018-09-20T10:31:52.526Z,19.50
2018-09-20T10:34:24.027Z,19.60
2018-09-20T10:36:54.700Z,19.60
2018-09-20T10:39:24.848Z,19.70
2018-09-20T10:41:54.981Z,19.70
2018-09-20T10:44:25.229Z,19.60
2018-09-20T10:46:56.420Z,19.80
2018-09-20T10:49:27.799Z,19.70
2018-09-20T10:51:58.110Z,19.60
2018-09-20T10:54:28.765Z,19.50
2018-09-20T10:56:58.899Z,19.60
2018-09-20T10:59:29.031Z,19.60
2018-09-20T11:01:59.189Z,19.60
2018-09-20T11:04:29.329Z,19.50
2018-09-20T11:06:59.534Z,19.50
2018-09-20T11:09:30.471Z,19.40
2018-09-20T11:12:00.596Z,19.50
2018-09-20T11:14:32.401Z,19.50
2018-09-20T11:17:03.009Z,19.50
2018-09-20T11:19:33.115Z,19.40
2018-09-20T11:22:03.803Z,19.50
2018-09-20T11:25:05.257Z,19.40
2018-09-20T11:27:35.762Z,19.50
2018-09-20T11:30:06.517Z,19.60
2018-09-20T11:32:39.019Z,19.60
2018-09-20T11:35:09.601Z,19.60
2018-09-20T11:37:40.512Z,19.70
2018-09-20T11:40:12.181Z,19.60
2018-09-20T11:42:42.454Z,19.50
2018-09-20T11:45:12.713Z,19.60
2018-09-20T11:47:44.581Z,19.70
2018-09-20T11:50:15.433Z,19.60
2018-09-20T11:52:45.708Z,19.50
2018-09-20T11:55:16.805Z,19.40
2018-09-20T11:57:47.684Z,19.50
2018-09-20T12:00:20.697Z,19.40
2018-09-20T12:02:53.357Z,19.40
2018-09-20T12:05:23.665Z,19.20
2018-09-20T12:07:54.884Z,19.10
2018-09-20T12:10:25.729Z,19.10
2018-09-20T12:12:55.818Z,19.10
2018-09-20T12:15:25.997Z,19.00
2018-09-20T12:17:56.144Z,18.90
2018-09-20T12:20:26.368Z,18.80
2018-09-20T12:22:56.553Z,18.80
2018-09-20T12:25:26.716Z,18.80
2018-09-20T12:27:57.141Z,19.00
2018-09-20T12:30:27.323Z,19.00
2018-09-20T12:32:57.500Z,19.10
2018-09-20T12:35:28.911Z,19.30
2018-09-20T12:37:59.372Z,19.20
2018-09-20T12:40:29.535Z,19.30
2018-09-20T12:43:01.274Z,19.20
2018-09-20T12:45:31.390Z,19.20
2018-09-20T12:48:02.660Z,19.10
2018-09-20T12:50:32.840Z,19.10
2018-09-20T12:53:03.000Z,19.00
2018-09-20T12:55:33.752Z,18.90
2018-09-20T12:58:04.792Z,18.90
2018-09-20T13:00:35.004Z,18.90
2018-09-20T13:03:05.220Z,18.90
2018-09-20T13:05:36.209Z,18.90
2018-09-20T13:08:06.388Z,19.00
2018-09-20T13:10:36.600Z,19.00
2018-09-20T13:13:07.427Z,18.90
2018-09-20T13:15:38.265Z,18.80
2018-09-20T13:18:08.420Z,18.80
2018-09-20T13:20:38.706Z,18.80
2018-09-20T13:23:09.678Z,18.70
2018-09-20T13:25:40.538Z,18.60
2018-09-20T13:28:11.199Z,18.60
2018-09-20T13:30:41.472Z,18.70
2018-09-20T13:33:12.565Z,18.50
2018-09-20T13:35:42.713Z,18.50
2018-09-20T13:38:12.852Z,18.50
2018-09-20T13:40:43.581Z,18.50
2018-09-20T13:43:13.750Z,18.50
2018-09-20T13:45:44.199Z,18.50
2018-09-20T13:48:14.332Z,18.50
2018-09-20T13:50:44.461Z,18.50
2018-09-20T13:53:14.909Z,18.50
2018-09-20T13:55:45.294Z,18.50
2018-09-20T13:58:16.316Z,18.50
2018-09-20T14:00:46.521Z,18.40
2018-09-20T14:03:17.234Z,18.50
2018-09-20T14:05:47.405Z,18.50
2018-09-20T14:08:17.782Z,18.40
2018-09-20T14:10:47.984Z,18.40
2018-09-20T14:13:18.102Z,18.40
2018-09-20T14:15:48.413Z,18.40
2018-09-20T14:18:19.296Z,18.40
2018-09-20T14:20:49.441Z,18.40
2018-09-20T14:23:19.565Z,18.50
2018-09-20T14:25:49.723Z,18.50
2018-09-20T14:28:20.496Z,18.50
2018-09-20T14:30:50.637Z,18.50
2018-09-20T14:33:20.897Z,18.50
2018-09-20T14:35:51.629Z,18.50
2018-09-20T14:38:22.634Z,18.40
2018-09-20T14:40:52.839Z,18.40
2018-09-20T14:43:23.005Z,18.40
2018-09-20T14:45:54.540Z,18.40
2018-09-20T14:48:25.374Z,18.40
2018-09-20T14:50:56.390Z,18.40
2018-09-20T14:53:26.558Z,18.40
2018-09-20T14:55:56.899Z,18.40
2018-09-20T14:58:27.712Z,18.40
2018-09-20T15:00:57.949Z,18.40
2018-09-20T15:03:28.133Z,18.40
2018-09-20T15:05:58.277Z,18.40
2018-09-20T15:08:29.240Z,18.30
2018-09-20T15:11:00.285Z,18.30
2018-09-20T15:13:31.112Z,18.30
2018-09-20T15:16:01.321Z,18.30
2018-09-20T15:18:32.267Z,18.20
2018-09-20T15:21:02.641Z,18.30
2018-09-20T15:23:33.421Z,18.30
2018-09-20T15:26:03.639Z,18.30
2018-09-20T15:28:34.389Z,18.30
2018-09-20T15:31:05.211Z,18.20
2018-09-20T15:33:35.976Z,18.20
2018-09-20T15:36:06.630Z,18.10
2018-09-20T15:38:38.220Z,18.10
2018-09-20T15:41:08.877Z,18.10
2018-09-20T15:43:40.404Z,18.20
2018-09-20T15:46:10.540Z,18.10
2018-09-20T15:48:40.761Z,18.10
2018-09-20T15:51:11.245Z,18.10
2018-09-20T15:53:41.444Z,18.10
2018-09-20T15:56:11.657Z,18.00
2018-09-20T15:58:41.789Z,18.00
2018-09-20T16:01:12.632Z,18.00
2018-09-20T16:03:42.755Z,18.00
2018-09-20T16:06:12.881Z,18.00
2018-09-20T16:08:43.029Z,18.00
2018-09-20T16:11:13.936Z,18.00
2018-09-20T16:13:44.180Z,18.00
2018-09-20T16:16:15.270Z,18.00
2018-09-20T16:18:45.581Z,18.00
2018-09-20T16:21:16.472Z,17.90
2018-09-20T16:23:46.618Z,17.90
2018-09-20T16:26:16.747Z,17.90
2018-09-20T16:30:34.927Z,17.90
2018-09-20T16:35:33.537Z,17.90
2018-09-20T16:38:17.245Z,17.80
2018-09-20T16:40:49.834Z,17.70
2018-09-20T16:43:19.950Z,17.60
2018-09-20T16:45:50.612Z,17.50
2018-09-20T16:48:20.940Z,17.40
2018-09-20T16:50:51.828Z,17.40
2018-09-20T16:53:22.043Z,17.40
2018-09-20T16:55:52.145Z,17.40
2018-09-20T16:58:22.241Z,17.30
2018-09-20T17:00:52.382Z,17.20
2018-09-20T17:03:22.544Z,17.20
2018-09-20T17:05:52.748Z,17.20
2018-09-20T17:08:22.880Z,17.10
2018-09-20T17:10:52.996Z,17.10
2018-09-20T17:13:23.302Z,17.10
2018-09-20T17:15:53.357Z,17.10
2018-09-20T17:18:23.485Z,17.00
2018-09-20T17:20:53.585Z,17.00
2018-09-20T17:23:23.724Z,17.00
2018-09-20T17:25:53.808Z,16.90
2018-09-20T17:28:23.892Z,16.90
2018-09-20T17:30:54.751Z,16.70
2018-09-20T17:33:24.840Z,16.70
2018-09-20T17:35:55.884Z,16.80
2018-09-20T17:38:27.179Z,16.80
2018-09-20T17:41:02.592Z,16.80
2018-09-20T17:43:36.828Z,16.80
2018-09-20T17:46:06.932Z,16.80
2018-09-20T17:48:37.085Z,16.80
2018-09-20T17:51:08.204Z,16.90
2018-09-20T17:53:39.072Z,16.80
2018-09-20T17:56:10.273Z,16.80
2018-09-20T17:58:41.412Z,16.80
2018-09-20T18:01:12.165Z,16.80
2018-09-20T18:03:42.364Z,16.80
2018-09-20T18:06:13.245Z,16.70
2018-09-20T18:08:43.328Z,16.70
2018-09-20T18:11:13.456Z,16.70
2018-09-20T18:13:43.528Z,16.60
2018-09-20T18:16:13.628Z,16.60
2018-09-20T18:18:44.452Z,16.50
2018-09-20T18:21:14.542Z,16.50
2018-09-20T18:23:44.617Z,16.50
2018-09-20T18:26:15.952Z,16.50
2018-09-20T18:28:46.068Z,16.40
2018-09-20T18:31:16.140Z,16.40
2018-09-20T18:33:46.400Z,16.40
2018-09-20T18:36:17.108Z,16.40
2018-09-20T18:38:47.200Z,16.30
2018-09-20T18:41:17.300Z,16.30
2018-09-20T18:43:47.376Z,16.20
2018-09-20T18:46:17.536Z,16.20
2018-09-20T18:48:48.312Z,16.20
2018-09-20T18:51:18.501Z,16.20
2018-09-20T18:53:48.528Z,16.10
2018-09-20T18:56:18.561Z,16.10
2018-09-20T18:58:48.705Z,16.10
2018-09-20T19:01:18.774Z,16.10
2018-09-20T19:03:48.812Z,16.00
2018-09-20T19:06:18.813Z,16.00
2018-09-20T19:08:48.864Z,16.00
2018-09-20T19:11:19.060Z,16.00
2018-09-20T19:13:49.069Z,15.90
2018-09-20T19:16:19.240Z,15.90
2018-09-20T19:18:49.916Z,15.90
2018-09-20T19:21:20.657Z,15.90
2018-09-20T19:23:50.728Z,15.90
2018-09-20T19:26:20.852Z,15.80
2018-09-20T19:28:51.144Z,15.80
2018-09-20T19:31:21.380Z,15.80
2018-09-20T19:33:51.468Z,15.80
2018-09-20T19:36:21.511Z,15.70
2018-09-20T19:38:51.624Z,15.70
2018-09-20T19:41:21.720Z,15.70
2018-09-20T19:43:52.449Z,15.60
2018-09-20T19:46:22.552Z,15.60
2018-09-20T19:48:52.969Z,15.50
2018-09-20T19:51:23.052Z,15.50
2018-09-20T19:53:53.137Z,15.40
2018-09-20T19:56:23.243Z,15.50
2018-09-20T19:58:53.948Z,15.40
2018-09-20T20:01:24.049Z,15.50
2018-09-20T20:03:54.145Z,15.40
2018-09-20T20:06:24.286Z,15.40
2018-09-20T20:08:54.365Z,15.40
2018-09-20T20:11:24.653Z,15.30
2018-09-20T20:13:55.132Z,15.20
2018-09-20T20:16:25.224Z,15.30
2018-09-20T20:18:55.365Z,15.20
2018-09-20T20:21:25.508Z,15.20
2018-09-20T20:23:55.601Z,15.20
2018-09-20T20:26:25.700Z,15.20
2018-09-20T20:28:55.808Z,15.20
2018-09-20T20:31:25.877Z,15.20
2018-09-20T20:36:22.197Z,15.20
2018-09-20T20:38:52.290Z,15.10
2018-09-20T20:41:22.668Z,15.10
2018-09-20T20:43:53.160Z,15.10
2018-09-20T20:46:23.430Z,15.00
2018-09-20T20:48:53.518Z,15.00
2018-09-20T20:51:23.664Z,14.90
2018-09-20T20:53:53.741Z,14.90
2018-09-20T20:56:23.840Z,14.80
2018-09-20T20:58:54.044Z,14.70
2018-09-20T21:01:24.112Z,14.70
2018-09-20T21:03:54.200Z,14.70
2018-09-20T21:06:24.345Z,14.60
2018-09-20T21:08:54.496Z,14.60
2018-09-20T21:11:24.598Z,14.50
2018-09-20T21:13:54.668Z,14.50
2018-09-20T21:16:24.796Z,14.40
2018-09-20T21:18:54.884Z,14.30
2018-09-20T21:21:25.352Z,14.30
2018-09-20T21:23:55.452Z,14.20
2018-09-20T21:26:25.548Z,14.20
2018-09-20T21:28:55.836Z,14.20
2018-09-20T21:31:25.928Z,14.10
2018-09-20T21:33:56.872Z,14.00
2018-09-20T21:36:27.248Z,14.00
2018-09-20T21:38:57.369Z,13.80
2018-09-20T21:41:27.491Z,13.70
2018-09-20T21:43:57.626Z,13.70
2018-09-20T21:46:27.757Z,13.60
2018-09-20T21:48:57.833Z,13.60
2018-09-20T21:51:27.920Z,13.60
2018-09-20T21:53:57.988Z,13.60
2018-09-20T21:56:28.878Z,13.60
2018-09-20T21:58:59.189Z,13.60
2018-09-20T22:01:33.547Z,13.60
2018-09-20T22:04:05.288Z,13.70
2018-09-20T22:06:36.464Z,13.60
2018-09-20T22:09:09.349Z,13.60
2018-09-20T22:11:41.137Z,13.60
2018-09-20T22:14:11.194Z,13.60
2018-09-20T22:16:41.339Z,13.70
2018-09-20T22:19:11.448Z,13.70
2018-09-20T22:21:41.568Z,13.60
2018-09-20T22:24:11.721Z,13.60
2018-09-20T22:26:42.469Z,13.60
2018-09-20T22:29:12.670Z,13.60
2018-09-20T22:31:43.496Z,13.60
2018-09-20T22:34:14.223Z,13.60
2018-09-20T22:36:44.335Z,13.60
2018-09-20T22:39:14.401Z,13.60
2018-09-20T22:41:44.400Z,13.60
2018-09-20T22:44:14.464Z,13.60
2018-09-20T22:46:44.576Z,13.60
2018-09-20T22:49:15.612Z,13.60
2018-09-20T22:51:45.872Z,13.60
2018-09-20T22:54:15.984Z,13.60
2018-09-20T22:56:46.663Z,13.60
2018-09-20T22:59:16.741Z,13.60
2018-09-20T23:01:46.837Z,13.60
2018-09-20T23:04:16.919Z,13.60
2018-09-20T23:06:47.060Z,13.60
2018-09-20T23:09:17.688Z,13.70
2018-09-20T23:11:47.892Z,13.70
2018-09-20T23:14:18.020Z,13.70
2018-09-20T23:16:48.155Z,13.70
2018-09-20T23:19:18.771Z,13.70
2018-09-20T23:21:48.889Z,13.70
2018-09-20T23:24:19.006Z,13.70
2018-09-20T23:26:49.121Z,13.70
2018-09-20T23:29:19.124Z,13.80
2018-09-20T23:31:49.245Z,13.70
2018-09-20T23:34:19.359Z,13.80
2018-09-20T23:36:49.545Z,13.80
2018-09-20T23:39:19.597Z,13.80
2018-09-20T23:41:49.698Z,13.80
2018-09-20T23:44:19.759Z,13.80
2018-09-20T23:46:49.995Z,13.80
2018-09-20T23:49:20.638Z,13.80
2018-09-20T23:51:51.464Z,13.80
2018-09-20T23:54:22.748Z,13.80
2018-09-20T23:56:52.936Z,13.80
2018-09-20T23:59:23.024Z,13.80
